sensor_id;sensor_type;location;lat;lon;timestamp;pressure;altitude;pressure_sealevel;temperature;humidity
4149;BME280;2088;51.032;7.082;2022-07-15T00:01:57;48156.69;;;-142.28;81.10
4149;BME280;2088;51.032;7.082;2022-07-15T00:04:23;48135.41;;;-142.28;81.03
4149;BME280;2088;51.032;7.082;2022-07-15T00:06:50;48143.13;;;-142.28;81.43
4149;BME280;2088;51.032;7.082;2022-07-15T00:09:16;48160.56;;;-142.28;82.46
4149;BME280;2088;51.032;7.082;2022-07-15T00:11:43;48121.84;;;-142.28;83.22
4149;BME280;2088;51.032;7.082;2022-07-15T00:14:09;48154.75;;;-142.28;83.98
4149;BME280;2088;51.032;7.082;2022-07-15T00:16:37;48166.38;;;-142.28;83.76
4149;BME280;2088;51.032;7.082;2022-07-15T00:19:04;48187.66;;;-142.28;84.30
4149;BME280;2088;51.032;7.082;2022-07-15T00:21:30;48158.63;;;-142.28;84.53
4149;BME280;2088;51.032;7.082;2022-07-15T00:23:57;48162.50;;;-142.28;85.40
4149;BME280;2088;51.032;7.082;2022-07-15T00:26:24;48166.38;;;-142.28;84.10
4149;BME280;2088;51.032;7.082;2022-07-15T00:28:50;48152.81;;;-142.28;85.24
4149;BME280;2088;51.032;7.082;2022-07-15T00:31:17;48199.25;;;-142.28;86.08
4149;BME280;2088;51.032;7.082;2022-07-15T00:33:45;48183.78;;;-142.28;86.22
4149;BME280;2088;51.032;7.082;2022-07-15T00:36:12;48214.75;;;-142.28;86.19
4149;BME280;2088;51.032;7.082;2022-07-15T00:38:39;48201.19;;;-142.28;87.56
4149;BME280;2088;51.032;7.082;2022-07-15T00:41:05;48230.22;;;-142.28;87.61
4149;BME280;2088;51.032;7.082;2022-07-15T00:43:32;48203.13;;;-142.28;88.24
4149;BME280;2088;51.032;7.082;2022-07-15T00:45:58;48220.56;;;-142.28;88.39
4149;BME280;2088;51.032;7.082;2022-07-15T00:48:25;48239.91;;;-142.28;88.95
4149;BME280;2088;51.032;7.082;2022-07-15T00:50:53;48224.41;;;-142.28;89.38
4149;BME280;2088;51.032;7.082;2022-07-15T00:53:20;48222.47;;;-142.28;90.21
4149;BME280;2088;51.032;7.082;2022-07-15T00:55:47;48216.69;;;-142.28;90.04
4149;BME280;2088;51.032;7.082;2022-07-15T00:58:16;48249.59;;;-142.28;90.04
4149;BME280;2088;51.032;7.082;2022-07-15T01:00:43;48230.22;;;-142.28;90.02
4149;BME280;2088;51.032;7.082;2022-07-15T01:03:10;48226.34;;;-142.28;90.29
4149;BME280;2088;51.032;7.082;2022-07-15T01:05:37;48247.66;;;-142.28;91.95
4149;BME280;2088;51.032;7.082;2022-07-15T01:08:05;48263.13;;;-142.28;92.69
4149;BME280;2088;51.032;7.082;2022-07-15T01:10:34;48272.81;;;-142.28;93.05
4149;BME280;2088;51.032;7.082;2022-07-15T01:13:01;48296.03;;;-142.28;93.26
4149;BME280;2088;51.032;7.082;2022-07-15T01:15:29;48284.41;;;-142.28;93.66
4149;BME280;2088;51.032;7.082;2022-07-15T01:17:56;48267.00;;;-142.28;93.32
4149;BME280;2088;51.032;7.082;2022-07-15T01:20:24;48297.97;;;-142.28;92.51
4149;BME280;2088;51.032;7.082;2022-07-15T01:22:52;48255.38;;;-142.28;90.19
4149;BME280;2088;51.032;7.082;2022-07-15T01:25:18;48261.19;;;-142.28;91.84
4149;BME280;2088;51.032;7.082;2022-07-15T01:27:45;48280.53;;;-142.28;91.90
4149;BME280;2088;51.032;7.082;2022-07-15T01:30:11;48272.81;;;-142.28;92.29
4149;BME280;2088;51.032;7.082;2022-07-15T01:32:38;48276.66;;;-142.28;92.00
4149;BME280;2088;51.032;7.082;2022-07-15T01:35:06;48267.00;;;-142.28;92.11
4149;BME280;2088;51.032;7.082;2022-07-15T01:37:32;48292.16;;;-142.28;91.86
4149;BME280;2088;51.032;7.082;2022-07-15T01:40:00;48268.94;;;-142.28;92.45
4149;BME280;2088;51.032;7.082;2022-07-15T01:42:27;48309.56;;;-142.28;93.41
4149;BME280;2088;51.032;7.082;2022-07-15T01:44:53;48323.13;;;-142.28;93.63
4149;BME280;2088;51.032;7.082;2022-07-15T01:47:20;48290.22;;;-142.28;93.55
4149;BME280;2088;51.032;7.082;2022-07-15T01:49:46;48305.69;;;-142.28;93.48
4149;BME280;2088;51.032;7.082;2022-07-15T01:52:12;48288.28;;;-142.28;93.48
4149;BME280;2088;51.032;7.082;2022-07-15T01:54:38;48282.47;;;-142.28;93.99
4149;BME280;2088;51.032;7.082;2022-07-15T01:57:06;48307.63;;;-142.28;94.02
4149;BME280;2088;51.032;7.082;2022-07-15T01:59:33;48276.66;;;-142.28;94.02
4149;BME280;2088;51.032;7.082;2022-07-15T02:02:00;48311.50;;;-142.28;93.04
4149;BME280;2088;51.032;7.082;2022-07-15T02:04:26;48309.56;;;-142.28;93.14
4149;BME280;2088;51.032;7.082;2022-07-15T02:06:53;48303.78;;;-142.28;92.87
4149;BME280;2088;51.032;7.082;2022-07-15T02:09:20;48307.63;;;-142.28;92.60
4149;BME280;2088;51.032;7.082;2022-07-15T02:11:46;48296.03;;;-142.28;92.17
4149;BME280;2088;51.032;7.082;2022-07-15T02:14:14;48303.78;;;-142.28;91.67
4149;BME280;2088;51.032;7.082;2022-07-15T02:16:41;48305.69;;;-142.28;91.63
4149;BME280;2088;51.032;7.082;2022-07-15T02:19:07;48311.50;;;-142.28;91.11
4149;BME280;2088;51.032;7.082;2022-07-15T02:21:35;48299.91;;;-142.28;91.41
4149;BME280;2088;51.032;7.082;2022-07-15T02:24:02;48272.81;;;-142.28;91.31
4149;BME280;2088;51.032;7.082;2022-07-15T02:26:28;48296.03;;;-142.28;91.31
4149;BME280;2088;51.032;7.082;2022-07-15T02:28:55;48307.63;;;-142.28;91.78
4149;BME280;2088;51.032;7.082;2022-07-15T02:31:23;48299.91;;;-142.28;92.43
4149;BME280;2088;51.032;7.082;2022-07-15T02:33:49;48311.50;;;-142.28;90.98
4149;BME280;2088;51.032;7.082;2022-07-15T02:36:16;48334.72;;;-142.28;91.61
4149;BME280;2088;51.032;7.082;2022-07-15T02:38:42;48299.91;;;-142.28;92.09
4149;BME280;2088;51.032;7.082;2022-07-15T02:41:09;48307.63;;;-142.28;90.90
4149;BME280;2088;51.032;7.082;2022-07-15T02:43:38;48286.34;;;-142.28;90.67
4149;BME280;2088;51.032;7.082;2022-07-15T02:46:06;48301.84;;;-142.28;90.93
4149;BME280;2088;51.032;7.082;2022-07-15T02:48:35;48336.66;;;-142.28;90.45
4149;BME280;2088;51.032;7.082;2022-07-15T02:51:02;48274.75;;;-142.28;91.09
4149;BME280;2088;51.032;7.082;2022-07-15T02:53:29;48327.00;;;-142.28;91.07
4149;BME280;2088;51.032;7.082;2022-07-15T02:55:56;48276.66;;;-142.28;90.52
4149;BME280;2088;51.032;7.082;2022-07-15T02:58:23;48303.78;;;-142.28;90.98
4149;BME280;2088;51.032;7.082;2022-07-15T03:00:50;48323.13;;;-142.28;90.32
4149;BME280;2088;51.032;7.082;2022-07-15T03:03:16;48311.50;;;-142.28;90.21
4149;BME280;2088;51.032;7.082;2022-07-15T03:05:44;48280.53;;;-142.28;89.14
4149;BME280;2088;51.032;7.082;2022-07-15T03:08:10;48297.97;;;-142.28;89.64
4149;BME280;2088;51.032;7.082;2022-07-15T03:10:37;48319.25;;;-142.28;90.62
4149;BME280;2088;51.032;7.082;2022-07-15T03:13:03;48305.69;;;-142.28;89.72
4149;BME280;2088;51.032;7.082;2022-07-15T03:15:30;48311.50;;;-142.28;89.59
4149;BME280;2088;51.032;7.082;2022-07-15T03:17:57;48311.50;;;-142.28;89.69
4149;BME280;2088;51.032;7.082;2022-07-15T03:20:23;48305.69;;;-142.28;89.91
4149;BME280;2088;51.032;7.082;2022-07-15T03:22:51;48307.63;;;-142.28;90.00
4149;BME280;2088;51.032;7.082;2022-07-15T03:25:17;48297.97;;;-142.28;90.30
4149;BME280;2088;51.032;7.082;2022-07-15T03:27:44;48327.00;;;-142.28;90.97
4149;BME280;2088;51.032;7.082;2022-07-15T03:30:11;48319.25;;;-142.28;90.99
4149;BME280;2088;51.032;7.082;2022-07-15T03:32:37;48296.03;;;-142.28;91.17
4149;BME280;2088;51.032;7.082;2022-07-15T03:35:04;48334.72;;;-142.28;91.06
4149;BME280;2088;51.032;7.082;2022-07-15T03:37:31;48307.63;;;-142.28;90.28
4149;BME280;2088;51.032;7.082;2022-07-15T03:39:59;48313.44;;;-142.28;90.70
4149;BME280;2088;51.032;7.082;2022-07-15T03:42:26;48325.06;;;-142.28;90.82
4149;BME280;2088;51.032;7.082;2022-07-15T03:44:53;48319.25;;;-142.28;90.50
4149;BME280;2088;51.032;7.082;2022-07-15T03:47:19;48305.69;;;-142.28;90.32
4149;BME280;2088;51.032;7.082;2022-07-15T03:49:46;48338.59;;;-142.28;90.56
4149;BME280;2088;51.032;7.082;2022-07-15T03:52:12;48305.69;;;-142.28;90.72
4149;BME280;2088;51.032;7.082;2022-07-15T03:54:39;48307.63;;;-142.28;90.53
4149;BME280;2088;51.032;7.082;2022-07-15T03:57:06;48313.44;;;-142.28;89.63
4149;BME280;2088;51.032;7.082;2022-07-15T03:59:33;48309.56;;;-142.28;89.38
4149;BME280;2088;51.032;7.082;2022-07-15T04:02:00;48319.25;;;-142.28;89.43
4149;BME280;2088;51.032;7.082;2022-07-15T04:04:26;48313.44;;;-142.28;88.20
4149;BME280;2088;51.032;7.082;2022-07-15T04:06:53;48296.03;;;-142.28;88.26
4149;BME280;2088;51.032;7.082;2022-07-15T04:09:19;48315.38;;;-142.28;87.56
4149;BME280;2088;51.032;7.082;2022-07-15T04:11:46;48278.59;;;-142.28;86.38
4149;BME280;2088;51.032;7.082;2022-07-15T04:14:14;48292.16;;;-142.28;86.34
4149;BME280;2088;51.032;7.082;2022-07-15T04:16:43;48280.53;;;-142.28;85.43
4149;BME280;2088;51.032;7.082;2022-07-15T04:19:10;48309.56;;;-142.28;84.69
4149;BME280;2088;51.032;7.082;2022-07-15T04:21:36;48278.59;;;-142.28;84.69
4149;BME280;2088;51.032;7.082;2022-07-15T04:24:03;48299.91;;;-142.28;84.53
4149;BME280;2088;51.032;7.082;2022-07-15T04:26:30;48288.28;;;-142.28;84.19
4149;BME280;2088;51.032;7.082;2022-07-15T04:28:57;48286.34;;;-142.28;83.93
4149;BME280;2088;51.032;7.082;2022-07-15T04:31:24;48292.16;;;-142.28;82.96
4149;BME280;2088;51.032;7.082;2022-07-15T04:33:51;48288.28;;;-142.28;83.24
4149;BME280;2088;51.032;7.082;2022-07-15T04:36:17;48323.13;;;-142.28;83.44
4149;BME280;2088;51.032;7.082;2022-07-15T04:38:44;48301.84;;;-142.28;83.38
4149;BME280;2088;51.032;7.082;2022-07-15T04:41:10;48292.16;;;-142.28;83.65
4149;BME280;2088;51.032;7.082;2022-07-15T04:43:37;48276.66;;;-142.28;83.69
4149;BME280;2088;51.032;7.082;2022-07-15T04:46:04;48284.41;;;-142.28;82.96
4149;BME280;2088;51.032;7.082;2022-07-15T04:48:32;48278.59;;;-142.28;81.69
4149;BME280;2088;51.032;7.082;2022-07-15T04:51:16;48257.31;;;-142.28;80.89
4149;BME280;2088;51.032;7.082;2022-07-15T04:53:42;48284.41;;;-142.28;80.58
4149;BME280;2088;51.032;7.082;2022-07-15T04:56:09;48263.13;;;-142.28;80.11
4149;BME280;2088;51.032;7.082;2022-07-15T04:58:35;48280.53;;;-142.28;78.22
4149;BME280;2088;51.032;7.082;2022-07-15T05:01:02;48290.22;;;-142.28;78.15
4149;BME280;2088;51.032;7.082;2022-07-15T05:03:28;48257.31;;;-142.28;79.38
4149;BME280;2088;51.032;7.082;2022-07-15T05:05:56;48280.53;;;-142.28;79.40
4149;BME280;2088;51.032;7.082;2022-07-15T05:08:23;48261.19;;;-142.28;78.90
4149;BME280;2088;51.032;7.082;2022-07-15T05:10:49;48282.47;;;-142.28;79.24
4149;BME280;2088;51.032;7.082;2022-07-15T05:13:16;48265.06;;;-142.28;79.00
4149;BME280;2088;51.032;7.082;2022-07-15T05:15:42;48265.06;;;-142.28;78.08
4149;BME280;2088;51.032;7.082;2022-07-15T05:18:09;48268.94;;;-142.28;79.13
4149;BME280;2088;51.032;7.082;2022-07-15T05:20:35;48265.06;;;-142.28;77.77
4149;BME280;2088;51.032;7.082;2022-07-15T05:23:03;48263.13;;;-142.28;78.01
4149;BME280;2088;51.032;7.082;2022-07-15T05:25:29;48286.34;;;-142.28;77.92
4149;BME280;2088;51.032;7.082;2022-07-15T05:27:56;48261.19;;;-142.28;77.29
4149;BME280;2088;51.032;7.082;2022-07-15T05:30:22;48247.66;;;-142.28;77.62
4149;BME280;2088;51.032;7.082;2022-07-15T05:32:49;48280.53;;;-142.28;77.93
4149;BME280;2088;51.032;7.082;2022-07-15T05:35:16;48268.94;;;-142.28;78.39
4149;BME280;2088;51.032;7.082;2022-07-15T05:37:42;48268.94;;;-142.28;78.77
4149;BME280;2088;51.032;7.082;2022-07-15T05:40:11;48265.06;;;-142.28;76.91
4149;BME280;2088;51.032;7.082;2022-07-15T05:42:40;48237.97;;;-142.28;76.14
4149;BME280;2088;51.032;7.082;2022-07-15T05:45:07;48257.31;;;-142.28;76.26
4149;BME280;2088;51.032;7.082;2022-07-15T05:47:34;48257.31;;;-142.28;75.57
4149;BME280;2088;51.032;7.082;2022-07-15T05:50:01;48249.59;;;-142.28;74.93
4149;BME280;2088;51.032;7.082;2022-07-15T05:52:27;48268.94;;;-142.28;74.67
4149;BME280;2088;51.032;7.082;2022-07-15T05:54:54;48267.00;;;-142.28;75.65
4149;BME280;2088;51.032;7.082;2022-07-15T05:57:22;48245.72;;;-142.28;74.37
4149;BME280;2088;51.032;7.082;2022-07-15T05:59:48;48249.59;;;-142.28;74.85
4149;BME280;2088;51.032;7.082;2022-07-15T06:02:15;48257.31;;;-142.28;75.48
4149;BME280;2088;51.032;7.082;2022-07-15T06:04:41;48230.22;;;-142.28;75.61
4149;BME280;2088;51.032;7.082;2022-07-15T06:07:08;48251.50;;;-142.28;75.75
4149;BME280;2088;51.032;7.082;2022-07-15T06:09:34;48220.56;;;-142.28;75.10
4149;BME280;2088;51.032;7.082;2022-07-15T06:12:01;48255.38;;;-142.28;75.05
4149;BME280;2088;51.032;7.082;2022-07-15T06:14:29;48253.44;;;-142.28;75.15
4149;BME280;2088;51.032;7.082;2022-07-15T06:16:55;48234.09;;;-142.28;75.06
4149;BME280;2088;51.032;7.082;2022-07-15T06:19:22;48267.00;;;-142.28;75.55
4149;BME280;2088;51.032;7.082;2022-07-15T06:21:48;48243.78;;;-142.28;75.37
4149;BME280;2088;51.032;7.082;2022-07-15T06:24:15;48247.66;;;-142.28;75.62
4149;BME280;2088;51.032;7.082;2022-07-15T06:26:41;48234.09;;;-142.28;75.55
4149;BME280;2088;51.032;7.082;2022-07-15T06:29:08;48255.38;;;-142.28;73.74
4149;BME280;2088;51.032;7.082;2022-07-15T06:31:36;48247.66;;;-142.28;72.89
4149;BME280;2088;51.032;7.082;2022-07-15T06:34:03;48239.91;;;-142.28;73.01
4149;BME280;2088;51.032;7.082;2022-07-15T06:36:29;48218.63;;;-142.28;72.83
4149;BME280;2088;51.032;7.082;2022-07-15T06:38:56;48234.09;;;-142.28;72.99
4149;BME280;2088;51.032;7.082;2022-07-15T06:41:23;48218.63;;;-142.28;73.17
4149;BME280;2088;51.032;7.082;2022-07-15T06:43:49;48218.63;;;-142.28;72.14
4149;BME280;2088;51.032;7.082;2022-07-15T06:46:16;48226.34;;;-142.28;72.11
4149;BME280;2088;51.032;7.082;2022-07-15T06:48:43;48228.28;;;-142.28;70.53
4149;BME280;2088;51.032;7.082;2022-07-15T06:51:10;48226.34;;;-142.28;71.25
4149;BME280;2088;51.032;7.082;2022-07-15T06:53:37;48224.41;;;-142.28;70.38
4149;BME280;2088;51.032;7.082;2022-07-15T06:56:04;48216.69;;;-142.28;70.80
4149;BME280;2088;51.032;7.082;2022-07-15T06:58:30;48214.75;;;-142.28;70.93
4149;BME280;2088;51.032;7.082;2022-07-15T07:00:57;48222.47;;;-142.28;70.19
4149;BME280;2088;51.032;7.082;2022-07-15T07:03:24;48226.34;;;-142.28;70.48
4149;BME280;2088;51.032;7.082;2022-07-15T07:05:52;48226.34;;;-142.28;70.30
4149;BME280;2088;51.032;7.082;2022-07-15T07:08:18;48237.97;;;-142.28;70.11
4149;BME280;2088;51.032;7.082;2022-07-15T07:10:45;48207.00;;;-142.28;64.73
4149;BME280;2088;51.032;7.082;2022-07-15T07:13:11;48201.19;;;-142.28;63.72
4149;BME280;2088;51.032;7.082;2022-07-15T07:15:38;48170.22;;;-142.28;62.05
4149;BME280;2088;51.032;7.082;2022-07-15T07:18:05;48177.97;;;-142.28;62.97
4149;BME280;2088;51.032;7.082;2022-07-15T07:20:31;48185.72;;;-142.28;63.67
4149;BME280;2088;51.032;7.082;2022-07-15T07:22:59;48160.56;;;-142.28;63.32
4149;BME280;2088;51.032;7.082;2022-07-15T07:25:25;48187.66;;;-142.28;63.38
4149;BME280;2088;51.032;7.082;2022-07-15T07:27:52;48187.66;;;-142.28;61.15
4149;BME280;2088;51.032;7.082;2022-07-15T07:30:18;48176.03;;;-142.28;61.67
4149;BME280;2088;51.032;7.082;2022-07-15T07:32:45;48176.03;;;-142.28;61.21
4149;BME280;2088;51.032;7.082;2022-07-15T07:35:11;48166.38;;;-142.28;60.07
4149;BME280;2088;51.032;7.082;2022-07-15T07:37:38;48160.56;;;-142.28;60.66
4149;BME280;2088;51.032;7.082;2022-07-15T07:40:08;48148.94;;;-142.28;58.75
4149;BME280;2088;51.032;7.082;2022-07-15T07:42:35;48152.81;;;-142.28;59.11
4149;BME280;2088;51.032;7.082;2022-07-15T07:45:02;48147.00;;;-142.28;58.88
4149;BME280;2088;51.032;7.082;2022-07-15T07:47:28;48152.81;;;-142.28;59.30
4149;BME280;2088;51.032;7.082;2022-07-15T07:49:56;48158.63;;;-142.28;58.64
4149;BME280;2088;51.032;7.082;2022-07-15T07:52:23;48158.63;;;-142.28;58.62
4149;BME280;2088;51.032;7.082;2022-07-15T07:54:49;48156.69;;;-142.28;57.22
4149;BME280;2088;51.032;7.082;2022-07-15T07:57:17;48143.13;;;-142.28;57.25
4149;BME280;2088;51.032;7.082;2022-07-15T07:59:44;48145.06;;;-142.28;56.25
4149;BME280;2088;51.032;7.082;2022-07-15T08:02:10;48133.47;;;-142.28;52.87
4149;BME280;2088;51.032;7.082;2022-07-15T08:04:37;48129.59;;;-142.28;52.88
4149;BME280;2088;51.032;7.082;2022-07-15T08:07:06;48117.97;;;-142.28;51.70
4149;BME280;2088;51.032;7.082;2022-07-15T08:09:32;48102.50;;;-142.28;52.93
4149;BME280;2088;51.032;7.082;2022-07-15T08:11:59;48090.88;;;-142.28;51.28
4149;BME280;2088;51.032;7.082;2022-07-15T08:14:27;48102.50;;;-142.28;51.09
4149;BME280;2088;51.032;7.082;2022-07-15T08:16:54;48108.31;;;-142.28;51.79
4149;BME280;2088;51.032;7.082;2022-07-15T08:19:21;48104.44;;;-142.28;52.30
4149;BME280;2088;51.032;7.082;2022-07-15T08:21:47;48098.63;;;-142.28;52.39
4149;BME280;2088;51.032;7.082;2022-07-15T08:24:14;48083.16;;;-142.28;52.74
4149;BME280;2088;51.032;7.082;2022-07-15T08:26:40;48096.69;;;-142.28;50.89
4149;BME280;2088;51.032;7.082;2022-07-15T08:29:07;48075.41;;;-142.28;48.02
4149;BME280;2088;51.032;7.082;2022-07-15T08:31:35;48098.63;;;-142.28;46.44
4149;BME280;2088;51.032;7.082;2022-07-15T08:34:03;48117.97;;;-142.28;46.98
4149;BME280;2088;51.032;7.082;2022-07-15T08:36:30;48094.75;;;-142.28;45.68
4149;BME280;2088;51.032;7.082;2022-07-15T08:38:57;48069.59;;;-142.28;46.54
4149;BME280;2088;51.032;7.082;2022-07-15T08:41:23;48059.94;;;-142.28;46.14
4149;BME280;2088;51.032;7.082;2022-07-15T08:43:50;48098.63;;;-142.28;46.68
4149;BME280;2088;51.032;7.082;2022-07-15T08:46:16;48042.50;;;-142.28;46.82
4149;BME280;2088;51.032;7.082;2022-07-15T08:48:49;48059.94;;;-142.28;45.94
4149;BME280;2088;51.032;7.082;2022-07-15T08:51:21;48048.31;;;-142.28;46.66
4149;BME280;2088;51.032;7.082;2022-07-15T08:53:50;48059.94;;;-142.28;46.52
4149;BME280;2088;51.032;7.082;2022-07-15T08:56:17;48083.16;;;-142.28;46.76
4149;BME280;2088;51.032;7.082;2022-07-15T08:58:45;48040.56;;;-142.28;46.32
4149;BME280;2088;51.032;7.082;2022-07-15T09:01:12;48071.53;;;-142.28;45.70
4149;BME280;2088;51.032;7.082;2022-07-15T09:03:38;48075.41;;;-142.28;45.98
4149;BME280;2088;51.032;7.082;2022-07-15T09:06:06;48050.25;;;-142.28;46.06
4149;BME280;2088;51.032;7.082;2022-07-15T09:08:33;48050.25;;;-142.28;45.54
4149;BME280;2088;51.032;7.082;2022-07-15T09:11:00;48059.94;;;-142.28;45.42
4149;BME280;2088;51.032;7.082;2022-07-15T09:13:30;48063.78;;;-142.28;45.28
4149;BME280;2088;51.032;7.082;2022-07-15T09:15:59;48048.31;;;-142.28;45.61
4149;BME280;2088;51.032;7.082;2022-07-15T09:18:27;48058.00;;;-142.28;45.96
4149;BME280;2088;51.032;7.082;2022-07-15T09:20:54;48085.09;;;-142.28;45.93
4149;BME280;2088;51.032;7.082;2022-07-15T09:23:26;48067.66;;;-142.28;45.51
4149;BME280;2088;51.032;7.082;2022-07-15T09:25:58;48048.31;;;-142.28;44.09
4149;BME280;2088;51.032;7.082;2022-07-15T09:28:39;48063.78;;;-142.28;46.01
4149;BME280;2088;51.032;7.082;2022-07-15T09:31:06;48073.47;;;-142.28;44.41
4149;BME280;2088;51.032;7.082;2022-07-15T09:33:58;48038.63;;;-142.28;43.48
4149;BME280;2088;51.032;7.082;2022-07-15T09:36:27;48063.78;;;-142.28;43.64
4149;BME280;2088;51.032;7.082;2022-07-15T09:38:56;48009.63;;;-142.28;43.67
4149;BME280;2088;51.032;7.082;2022-07-15T09:41:27;48048.31;;;-142.28;43.77
4149;BME280;2088;51.032;7.082;2022-07-15T09:43:56;48025.09;;;-142.28;42.63
4149;BME280;2088;51.032;7.082;2022-07-15T09:46:26;48052.19;;;-142.28;42.90
4149;BME280;2088;51.032;7.082;2022-07-15T09:48:53;48034.78;;;-142.28;42.48
4149;BME280;2088;51.032;7.082;2022-07-15T09:51:20;48034.78;;;-142.28;41.86
4149;BME280;2088;51.032;7.082;2022-07-15T09:53:47;48040.56;;;-142.28;42.19
4149;BME280;2088;51.032;7.082;2022-07-15T09:56:19;48015.41;;;-142.28;42.96
4149;BME280;2088;51.032;7.082;2022-07-15T09:58:50;48030.91;;;-142.28;43.04
4149;BME280;2088;51.032;7.082;2022-07-15T10:01:17;48042.50;;;-142.28;43.98
4149;BME280;2088;51.032;7.082;2022-07-15T10:03:44;48042.50;;;-142.28;45.83
4149;BME280;2088;51.032;7.082;2022-07-15T10:06:14;48003.81;;;-142.28;45.06
4149;BME280;2088;51.032;7.082;2022-07-15T10:08:46;48046.38;;;-142.28;45.07
4149;BME280;2088;51.032;7.082;2022-07-15T10:11:13;48058.00;;;-142.28;46.19
4149;BME280;2088;51.032;7.082;2022-07-15T10:20:02;48036.72;;;-142.28;44.04
4149;BME280;2088;51.032;7.082;2022-07-15T10:22:45;48056.06;;;-142.28;44.35
4149;BME280;2088;51.032;7.082;2022-07-15T10:25:25;48044.44;;;-142.28;42.05
4149;BME280;2088;51.032;7.082;2022-07-15T10:28:05;48040.56;;;-142.28;42.09
4149;BME280;2088;51.032;7.082;2022-07-15T10:30:34;48038.63;;;-142.28;42.42
4149;BME280;2088;51.032;7.082;2022-07-15T10:33:06;48028.97;;;-142.28;43.80
4149;BME280;2088;51.032;7.082;2022-07-15T10:35:38;48019.28;;;-142.28;41.80
4149;BME280;2088;51.032;7.082;2022-07-15T10:38:24;48015.41;;;-142.28;41.72
4149;BME280;2088;51.032;7.082;2022-07-15T10:40:59;48013.47;;;-142.28;40.98
4149;BME280;2088;51.032;7.082;2022-07-15T10:43:38;48023.16;;;-142.28;41.64
4149;BME280;2088;51.032;7.082;2022-07-15T10:46:16;48005.75;;;-142.28;39.64
4149;BME280;2088;51.032;7.082;2022-07-15T10:48:44;48009.63;;;-142.28;38.54
4149;BME280;2088;51.032;7.082;2022-07-15T10:51:40;47996.06;;;-142.28;38.86
4149;BME280;2088;51.032;7.082;2022-07-15T10:53:59;47982.53;;;-142.28;37.95
4149;BME280;2088;51.032;7.082;2022-07-15T10:56:27;48015.41;;;-142.28;38.25
4149;BME280;2088;51.032;7.082;2022-07-15T10:59:07;47999.94;;;-142.28;39.42
4149;BME280;2088;51.032;7.082;2022-07-15T11:01:34;48001.88;;;-142.28;39.94
4149;BME280;2088;51.032;7.082;2022-07-15T11:04:14;48015.41;;;-142.28;41.30
4149;BME280;2088;51.032;7.082;2022-07-15T11:07:24;48001.88;;;-142.28;42.21
4149;BME280;2088;51.032;7.082;2022-07-15T11:09:52;48011.56;;;-142.28;41.83
4149;BME280;2088;51.032;7.082;2022-07-15T11:12:21;48003.81;;;-142.28;42.33
4149;BME280;2088;51.032;7.082;2022-07-15T11:14:54;48005.75;;;-142.28;41.98
4149;BME280;2088;51.032;7.082;2022-07-15T11:17:24;47992.19;;;-142.28;42.18
4149;BME280;2088;51.032;7.082;2022-07-15T11:19:53;48013.47;;;-142.28;41.40
4149;BME280;2088;51.032;7.082;2022-07-15T11:22:22;48005.75;;;-142.28;40.84
4149;BME280;2088;51.032;7.082;2022-07-15T11:24:50;47988.31;;;-142.28;41.33
4149;BME280;2088;51.032;7.082;2022-07-15T11:27:18;48013.47;;;-142.28;41.21
4149;BME280;2088;51.032;7.082;2022-07-15T11:29:48;48009.63;;;-142.28;41.13
4149;BME280;2088;51.032;7.082;2022-07-15T11:32:17;48021.22;;;-142.28;40.00
4149;BME280;2088;51.032;7.082;2022-07-15T11:34:45;47998.00;;;-142.28;38.75
4149;BME280;2088;51.032;7.082;2022-07-15T11:37:13;48005.75;;;-142.28;39.03
4149;BME280;2088;51.032;7.082;2022-07-15T11:39:44;48003.81;;;-142.28;37.78
4149;BME280;2088;51.032;7.082;2022-07-15T11:42:19;48005.75;;;-142.28;40.01
4149;BME280;2088;51.032;7.082;2022-07-15T11:45:05;48001.88;;;-142.28;39.41
4149;BME280;2088;51.032;7.082;2022-07-15T11:47:32;48025.09;;;-142.28;39.75
4149;BME280;2088;51.032;7.082;2022-07-15T11:49:59;48028.97;;;-142.28;40.56
4149;BME280;2088;51.032;7.082;2022-07-15T11:52:26;47988.31;;;-142.28;40.09
4149;BME280;2088;51.032;7.082;2022-07-15T11:54:53;48025.09;;;-142.28;38.75
4149;BME280;2088;51.032;7.082;2022-07-15T11:57:22;47990.25;;;-142.28;34.83
4149;BME280;2088;51.032;7.082;2022-07-15T11:59:56;47990.25;;;-142.28;35.39
4149;BME280;2088;51.032;7.082;2022-07-15T12:02:23;47984.47;;;-142.28;36.96
4149;BME280;2088;51.032;7.082;2022-07-15T12:04:51;47996.06;;;-142.28;37.37
4149;BME280;2088;51.032;7.082;2022-07-15T12:07:19;48005.75;;;-142.28;36.81
4149;BME280;2088;51.032;7.082;2022-07-15T12:09:47;47988.31;;;-142.28;38.28
4149;BME280;2088;51.032;7.082;2022-07-15T12:12:16;47994.13;;;-142.28;37.05
4149;BME280;2088;51.032;7.082;2022-07-15T12:14:47;47994.13;;;-142.28;35.71
4149;BME280;2088;51.032;7.082;2022-07-15T12:17:14;47990.25;;;-142.28;33.48
4149;BME280;2088;51.032;7.082;2022-07-15T12:19:46;48005.75;;;-142.28;30.02
4149;BME280;2088;51.032;7.082;2022-07-15T12:22:13;47970.91;;;-142.28;29.12
4149;BME280;2088;51.032;7.082;2022-07-15T12:24:41;47994.13;;;-142.28;28.96
4149;BME280;2088;51.032;7.082;2022-07-15T12:27:09;47982.53;;;-142.28;30.83
4149;BME280;2088;51.032;7.082;2022-07-15T12:29:36;47998.00;;;-142.28;31.96
4149;BME280;2088;51.032;7.082;2022-07-15T12:32:05;48005.75;;;-142.28;33.47
4149;BME280;2088;51.032;7.082;2022-07-15T12:34:50;48017.34;;;-142.28;35.12
4149;BME280;2088;51.032;7.082;2022-07-15T12:37:19;48028.97;;;-142.28;35.98
4149;BME280;2088;51.032;7.082;2022-07-15T12:40:00;48011.56;;;-142.28;36.74
4149;BME280;2088;51.032;7.082;2022-07-15T12:42:29;48013.47;;;-142.28;37.25
4149;BME280;2088;51.032;7.082;2022-07-15T12:45:08;47988.31;;;-142.28;35.19
4149;BME280;2088;51.032;7.082;2022-07-15T12:47:37;47986.41;;;-142.28;32.47
4149;BME280;2088;51.032;7.082;2022-07-15T12:50:21;47986.41;;;-142.28;29.61
4149;BME280;2088;51.032;7.082;2022-07-15T12:52:48;47957.38;;;-142.28;28.53
4149;BME280;2088;51.032;7.082;2022-07-15T12:55:16;47972.84;;;-142.28;29.06
4149;BME280;2088;51.032;7.082;2022-07-15T12:57:44;47994.13;;;-142.28;29.22
4149;BME280;2088;51.032;7.082;2022-07-15T13:00:13;47986.41;;;-142.28;30.19
4149;BME280;2088;51.032;7.082;2022-07-15T13:03:02;47988.31;;;-142.28;31.70
4149;BME280;2088;51.032;7.082;2022-07-15T13:05:32;48005.75;;;-142.28;33.53
4149;BME280;2088;51.032;7.082;2022-07-15T13:07:59;48009.63;;;-142.28;35.46
4149;BME280;2088;51.032;7.082;2022-07-15T13:10:28;48017.34;;;-142.28;35.67
4149;BME280;2088;51.032;7.082;2022-07-15T13:12:54;47999.94;;;-142.28;36.19